createdAt,value
2022-08-02T00:01:04.341Z,25.05
2022-08-02T00:03:33.384Z,25.29
2022-08-02T00:06:02.566Z,25.09
2022-08-02T00:08:31.064Z,25.31
2022-08-02T00:11:01.886Z,25.17
2022-08-02T00:13:31.173Z,25.10
2022-08-02T00:15:59.534Z,24.90
2022-08-02T00:18:29.088Z,25.01
2022-08-02T00:20:57.095Z,25.10
2022-08-02T00:23:25.548Z,25.11
2022-08-02T00:25:59.110Z,24.89
2022-08-02T00:28:28.361Z,24.61
2022-08-02T00:30:59.286Z,24.42
2022-08-02T00:34:26.255Z,24.54
2022-08-02T00:36:17.258Z,24.08
2022-08-02T00:38:46.732Z,24.17
2022-08-02T00:41:17.758Z,24.46
2022-08-02T00:43:49.391Z,24.53
2022-08-02T00:46:18.884Z,24.35
2022-08-02T00:48:49.747Z,24.34
2022-08-02T00:51:18.332Z,24.45
2022-08-02T00:53:47.797Z,24.36
2022-08-02T00:56:16.609Z,24.50
2022-08-02T00:58:45.238Z,24.56
2022-08-02T01:01:15.910Z,24.67
2022-08-02T01:03:45.015Z,24.85
2022-08-02T01:06:16.949Z,24.46
2022-08-02T01:08:45.152Z,24.60
2022-08-02T01:11:13.835Z,24.52
2022-08-02T01:13:43.331Z,24.24
2022-08-02T01:16:16.788Z,24.33
2022-08-02T01:18:49.406Z,23.97
2022-08-02T01:21:27.972Z,23.93
2022-08-02T01:24:25.005Z,23.89
2022-08-02T01:27:34.579Z,23.74
2022-08-02T01:30:04.845Z,23.98
2022-08-02T01:32:43.100Z,23.96
2022-08-02T01:35:23.053Z,24.10
2022-08-02T01:38:01.842Z,23.90
2022-08-02T01:40:32.365Z,23.87
2022-08-02T01:43:01.005Z,23.51
2022-08-02T01:45:32.984Z,23.84
2022-08-02T01:48:03.617Z,23.77
2022-08-02T01:50:38.156Z,23.63
2022-08-02T01:53:11.388Z,23.40
2022-08-02T01:55:58.480Z,23.46
2022-08-02T01:58:34.429Z,23.22
2022-08-02T02:01:07.891Z,23.03
2022-08-02T02:03:41.632Z,23.07
2022-08-02T02:06:13.179Z,23.07
2022-08-02T02:08:44.625Z,23.12
2022-08-02T02:12:06.175Z,22.67
2022-08-02T02:14:05.563Z,22.50
2022-08-02T02:16:35.312Z,22.45
2022-08-02T02:19:04.481Z,22.75
2022-08-02T02:21:35.196Z,22.87
2022-08-02T02:24:05.851Z,22.87
2022-08-02T02:26:38.313Z,23.11
2022-08-02T02:29:11.920Z,23.01
2022-08-02T02:31:45.272Z,22.94
2022-08-02T02:34:27.262Z,22.46
2022-08-02T02:36:57.572Z,22.67
2022-08-02T02:39:28.671Z,22.89
2022-08-02T02:42:01.603Z,22.79
2022-08-02T02:44:31.720Z,22.79
2022-08-02T02:47:00.779Z,22.70
2022-08-02T02:49:32.523Z,22.94
2022-08-02T02:52:03.580Z,22.85
2022-08-02T02:54:35.319Z,22.23
2022-08-02T02:57:06.112Z,21.88
2022-08-02T02:59:49.071Z,22.12
2022-08-02T03:02:19.267Z,22.32
2022-08-02T03:04:57.247Z,22.33
2022-08-02T03:07:27.171Z,22.30
2022-08-02T03:09:55.591Z,22.48
2022-08-02T03:12:32.226Z,22.63
2022-08-02T03:17:43.479Z,22.45
2022-08-02T03:20:15.477Z,22.07
2022-08-02T03:22:45.344Z,22.16
2022-08-02T03:25:21.244Z,22.20
2022-08-02T03:27:50.871Z,22.25
2022-08-02T03:30:20.975Z,22.48
2022-08-02T03:32:57.095Z,22.48
2022-08-02T03:35:32.639Z,22.25
2022-08-02T03:38:02.628Z,22.13
2022-08-02T03:40:32.472Z,22.45
2022-08-02T03:43:04.159Z,22.31
2022-08-02T03:45:32.166Z,22.42
2022-08-02T03:48:00.829Z,22.48
2022-08-02T03:50:29.761Z,22.53
2022-08-02T03:53:00.080Z,22.26
2022-08-02T03:55:28.875Z,22.27
2022-08-02T03:58:00.815Z,22.34
2022-08-02T04:00:28.940Z,22.40
2022-08-02T04:02:57.344Z,22.46
2022-08-02T04:05:25.598Z,22.08
2022-08-02T04:08:35.244Z,22.39
2022-08-02T04:11:02.101Z,22.61
2022-08-02T04:13:36.035Z,22.58
2022-08-02T04:16:15.110Z,22.80
2022-08-02T04:18:51.613Z,22.87
2022-08-02T04:21:22.021Z,22.78
2022-08-02T04:23:51.219Z,22.47
2022-08-02T04:26:28.378Z,22.49
2022-08-02T04:28:57.099Z,22.93
2022-08-02T04:31:25.941Z,22.96
2022-08-02T04:33:54.874Z,23.00
2022-08-02T04:36:31.461Z,23.08
2022-08-02T04:39:01.333Z,23.08
2022-08-02T04:41:44.691Z,23.29
2022-08-02T04:44:14.532Z,23.42
2022-08-02T04:46:43.876Z,23.40
2022-08-02T04:49:13.108Z,23.21
2022-08-02T04:51:46.033Z,23.20
2022-08-02T04:54:14.773Z,23.20
2022-08-02T04:56:43.095Z,23.56
2022-08-02T04:59:13.261Z,22.96
2022-08-02T05:01:42.615Z,23.26
2022-08-02T05:04:12.401Z,23.54
2022-08-02T05:06:42.027Z,23.76
2022-08-02T05:09:11.159Z,23.48
2022-08-02T05:11:40.244Z,23.41
2022-08-02T05:14:09.795Z,23.68
2022-08-02T05:16:37.964Z,23.92
2022-08-02T05:19:06.163Z,23.76
2022-08-02T05:21:34.548Z,23.99
2022-08-02T05:24:05.317Z,24.23
2022-08-02T05:26:42.833Z,24.42
2022-08-02T05:29:15.885Z,24.48
2022-08-02T05:31:46.018Z,24.48
2022-08-02T05:34:14.711Z,24.53
2022-08-02T05:36:43.383Z,24.64
2022-08-02T05:39:18.652Z,24.65
2022-08-02T05:41:50.085Z,24.55
2022-08-02T05:44:19.690Z,24.86
2022-08-02T05:46:47.870Z,24.89
2022-08-02T05:49:15.610Z,24.97
2022-08-02T05:52:10.161Z,25.32
2022-08-02T05:55:04.223Z,25.54
2022-08-02T05:57:48.860Z,25.65
2022-08-02T06:00:17.601Z,25.30
2022-08-02T06:03:26.031Z,25.50
2022-08-02T06:06:13.329Z,25.45
2022-08-02T06:08:54.680Z,25.66
2022-08-02T06:11:24.571Z,25.49
2022-08-02T06:13:55.060Z,25.72
2022-08-02T06:16:32.625Z,25.77
2022-08-02T06:19:02.919Z,25.91
2022-08-02T06:22:33.526Z,26.18
2022-08-02T06:24:20.180Z,26.15
2022-08-02T06:26:55.464Z,26.42
2022-08-02T06:29:24.032Z,26.42
2022-08-02T06:31:53.131Z,26.52
2022-08-02T06:34:21.421Z,26.83
2022-08-02T06:37:20.248Z,26.92
2022-08-02T06:39:50.652Z,26.96
2022-08-02T06:42:26.937Z,27.22
2022-08-02T06:44:58.145Z,27.37
2022-08-02T06:47:31.529Z,27.17
2022-08-02T06:49:59.898Z,27.35
2022-08-02T06:52:31.780Z,27.47
2022-08-02T06:55:01.730Z,27.40
2022-08-02T06:57:31.341Z,27.35
2022-08-02T07:00:02.609Z,27.63
2022-08-02T07:02:31.869Z,27.83
2022-08-02T07:05:07.520Z,27.60
2022-08-02T07:07:38.802Z,27.70
2022-08-02T07:10:07.591Z,27.65
2022-08-02T07:12:36.418Z,27.94
2022-08-02T07:15:06.854Z,28.08
2022-08-02T07:17:35.583Z,28.40
2022-08-02T07:20:04.805Z,28.46
2022-08-02T07:22:33.039Z,28.60
2022-08-02T07:25:01.456Z,28.80
2022-08-02T07:27:29.773Z,28.66
2022-08-02T07:30:00.291Z,28.94
2022-08-02T07:32:30.845Z,29.13
2022-08-02T07:35:02.674Z,29.34
2022-08-02T07:37:54.699Z,29.57
2022-08-02T07:40:29.449Z,29.44
2022-08-02T07:43:03.414Z,29.01
2022-08-02T07:45:36.020Z,29.37
2022-08-02T07:48:14.004Z,29.43
2022-08-02T07:50:42.550Z,29.47
2022-08-02T07:53:11.073Z,29.37
2022-08-02T07:55:40.778Z,29.82
2022-08-02T07:58:12.950Z,29.85
2022-08-02T08:00:44.729Z,30.05
2022-08-02T08:03:13.797Z,30.25
2022-08-02T08:05:44.353Z,30.26
2022-08-02T08:08:17.165Z,30.55
2022-08-02T08:10:47.463Z,30.41
2022-08-02T08:13:16.935Z,30.29
2022-08-02T08:15:52.005Z,30.01
2022-08-02T08:19:13.722Z,30.27
2022-08-02T08:21:44.100Z,30.15
2022-08-02T08:24:24.620Z,30.48
2022-08-02T08:26:56.042Z,30.74
2022-08-02T08:29:26.762Z,30.54
2022-08-02T08:31:55.115Z,30.51
2022-08-02T08:34:24.538Z,30.82
2022-08-02T08:36:55.524Z,31.04
2022-08-02T08:39:23.430Z,31.00
2022-08-02T08:41:52.175Z,31.22
2022-08-02T08:44:21.484Z,31.28
2022-08-02T08:46:50.445Z,31.47
2022-08-02T08:49:26.141Z,31.53
2022-08-02T08:51:56.307Z,31.63
2022-08-02T08:54:26.651Z,31.46
2022-08-02T08:56:58.345Z,31.74
2022-08-02T08:59:27.019Z,31.99
2022-08-02T09:02:00.768Z,31.82
2022-08-02T09:04:55.041Z,32.13
2022-08-02T09:07:24.813Z,32.58
2022-08-02T09:09:53.235Z,32.52
2022-08-02T09:12:22.638Z,32.79
2022-08-02T09:14:51.679Z,32.79
2022-08-02T09:17:21.415Z,32.64
2022-08-02T09:20:06.897Z,32.92
2022-08-02T09:22:36.785Z,32.89
2022-08-02T09:25:06.370Z,33.00
2022-08-02T09:27:37.671Z,33.13
2022-08-02T09:30:11.690Z,33.21
2022-08-02T09:32:50.135Z,33.30
2022-08-02T09:36:06.265Z,33.36
2022-08-02T09:38:28.633Z,33.40
2022-08-02T09:40:58.133Z,33.62
2022-08-02T09:43:57.116Z,33.65
2022-08-02T09:46:42.926Z,33.58
2022-08-02T09:49:16.682Z,33.75
2022-08-02T09:51:53.467Z,33.65
2022-08-02T09:54:26.725Z,34.11
2022-08-02T09:56:57.710Z,34.23
2022-08-02T09:59:32.930Z,34.50
2022-08-02T10:02:04.030Z,34.70
2022-08-02T10:04:34.568Z,34.92
2022-08-02T10:07:26.532Z,35.12
2022-08-02T10:10:00.801Z,35.03
2022-08-02T10:12:29.916Z,34.52
2022-08-02T10:15:01.535Z,34.75
2022-08-02T10:17:35.978Z,34.60
2022-08-02T10:20:07.708Z,34.19
2022-08-02T10:22:38.628Z,34.27
2022-08-02T10:25:08.993Z,34.16
2022-08-02T10:28:02.932Z,34.04
2022-08-02T10:30:28.062Z,33.74
2022-08-02T10:33:08.597Z,33.68
2022-08-02T10:36:22.621Z,33.77
2022-08-02T10:39:04.506Z,33.95
2022-08-02T10:41:48.131Z,34.08
2022-08-02T10:44:40.877Z,34.31
2022-08-02T10:47:17.176Z,34.35
2022-08-02T10:49:50.768Z,34.73
2022-08-02T10:52:23.904Z,34.74
2022-08-02T10:54:58.639Z,34.74
2022-08-02T10:57:37.934Z,34.73
2022-08-02T11:00:24.589Z,34.62
2022-08-02T11:02:58.089Z,34.41
2022-08-02T11:05:42.710Z,34.25
2022-08-02T11:08:22.854Z,34.19
2022-08-02T11:11:01.714Z,34.14
2022-08-02T11:13:30.507Z,34.28
2022-08-02T11:16:07.707Z,34.28
2022-08-02T11:18:51.533Z,34.28
2022-08-02T11:21:26.267Z,34.10
2022-08-02T11:23:57.052Z,34.17
2022-08-02T11:26:31.380Z,34.26
2022-08-02T11:29:01.915Z,34.06
2022-08-02T11:31:40.960Z,33.73
2022-08-02T11:34:11.265Z,34.00
2022-08-02T11:36:59.612Z,33.77
2022-08-02T11:39:27.885Z,33.87
2022-08-02T11:41:58.725Z,33.63
2022-08-02T11:44:28.474Z,33.73
2022-08-02T11:47:02.035Z,33.87
2022-08-02T11:49:31.626Z,34.04
2022-08-02T11:52:06.249Z,33.85
2022-08-02T11:54:37.188Z,33.73
2022-08-02T11:57:19.287Z,33.94
2022-08-02T11:59:53.499Z,33.46
2022-08-02T12:02:31.865Z,33.32
2022-08-02T12:05:09.122Z,33.19
2022-08-02T12:07:45.926Z,33.06
2022-08-02T12:10:25.838Z,33.28
2022-08-02T12:12:59.138Z,33.37
2022-08-02T12:15:31.355Z,33.35
2022-08-02T12:18:19.181Z,33.41
2022-08-02T12:20:47.585Z,33.36
2022-08-02T12:23:15.824Z,33.14
2022-08-02T12:25:43.625Z,33.00
2022-08-02T12:28:17.726Z,33.19
2022-08-02T12:30:54.181Z,33.54
2022-08-02T12:33:23.367Z,33.76
2022-08-02T12:35:52.028Z,33.61
2022-08-02T12:38:20.829Z,34.06
2022-08-02T12:40:49.687Z,33.89
2022-08-02T12:43:20.931Z,34.39
2022-08-02T12:45:49.309Z,34.53
2022-08-02T12:48:36.762Z,34.59
2022-08-02T12:51:51.214Z,34.57
2022-08-02T12:54:36.094Z,34.56
2022-08-02T12:57:12.743Z,34.41
2022-08-02T12:59:45.238Z,34.70
2022-08-02T13:02:14.840Z,34.69
2022-08-02T13:04:50.108Z,34.54
2022-08-02T13:07:20.298Z,34.72
2022-08-02T13:09:50.392Z,34.67
2022-08-02T13:12:18.823Z,34.60
2022-08-02T13:14:47.057Z,34.66
2022-08-02T13:17:15.379Z,34.26
2022-08-02T13:19:43.595Z,34.81
2022-08-02T13:22:11.827Z,34.76
2022-08-02T13:24:57.144Z,34.73
2022-08-02T13:31:34.473Z,35.00
2022-08-02T13:38:50.366Z,35.57
2022-08-02T13:42:31.718Z,35.64
2022-08-02T13:53:59.205Z,36.30
2022-08-02T13:57:17.672Z,36.32
2022-08-02T14:45:05.831Z,36.89
2022-08-02T14:47:49.486Z,37.01
2022-08-02T14:50:34.161Z,36.91
2022-08-02T15:05:42.493Z,37.10
2022-08-02T15:08:17.102Z,37.15
2022-08-02T15:11:14.845Z,37.11
2022-08-02T15:13:48.564Z,37.14
2022-08-02T15:16:41.682Z,37.33
2022-08-02T15:19:15.787Z,36.89
2022-08-02T15:21:56.869Z,37.09
2022-08-02T15:24:29.341Z,37.30
2022-08-02T15:27:00.239Z,37.19
2022-08-02T15:29:38.636Z,37.24
2022-08-02T15:32:08.313Z,37.02
2022-08-02T15:34:40.391Z,36.90
2022-08-02T15:37:13.672Z,36.57
2022-08-02T15:39:50.364Z,36.46
2022-08-02T15:42:21.572Z,36.43
2022-08-02T15:45:03.981Z,36.16
2022-08-02T15:47:38.484Z,36.32
2022-08-02T15:50:11.386Z,36.21
2022-08-02T15:52:44.421Z,36.25
2022-08-02T15:55:19.493Z,35.71
2022-08-02T15:57:48.501Z,36.10
2022-08-02T16:00:24.012Z,35.87
2022-08-02T16:02:53.588Z,35.94
2022-08-02T16:05:23.510Z,35.82
2022-08-02T16:07:53.934Z,35.98
2022-08-02T16:10:26.904Z,35.90
2022-08-02T16:13:20.188Z,35.94
2022-08-02T16:15:50.901Z,35.85
2022-08-02T16:18:20.538Z,35.86
2022-08-02T16:20:49.970Z,35.88
2022-08-02T16:23:21.351Z,35.55
2022-08-02T16:26:10.663Z,35.63
2022-08-02T16:28:41.114Z,35.76
2022-08-02T16:31:11.777Z,35.57
2022-08-02T16:33:42.266Z,35.75
2022-08-02T16:36:13.377Z,35.17
2022-08-02T16:38:49.464Z,35.22
2022-08-02T16:41:23.674Z,35.34
2022-08-02T16:44:17.404Z,35.26
2022-08-02T16:46:47.217Z,35.34
2022-08-02T16:50:07.392Z,34.92
2022-08-02T16:52:12.550Z,35.06
2022-08-02T16:54:45.335Z,35.19
2022-08-02T16:57:23.959Z,34.93
2022-08-02T17:00:16.227Z,34.89
2022-08-02T17:02:47.500Z,34.84
2022-08-02T17:05:17.278Z,34.91
2022-08-02T17:08:07.529Z,34.85
2022-08-02T17:10:43.008Z,34.91
2022-08-02T17:13:13.419Z,34.98
2022-08-02T17:16:15.753Z,34.29
2022-08-02T17:18:37.443Z,34.54
2022-08-02T17:21:14.534Z,34.37
2022-08-02T17:24:07.839Z,34.20
2022-08-02T17:26:37.915Z,34.38
2022-08-02T17:29:16.042Z,34.21
2022-08-02T17:32:02.419Z,34.15
2022-08-02T17:34:36.134Z,34.08
2022-08-02T17:37:05.832Z,34.04
2022-08-02T17:39:44.381Z,33.93
2022-08-02T17:42:23.125Z,33.76
2022-08-02T17:44:53.720Z,33.78
2022-08-02T17:47:23.433Z,33.51
2022-08-02T17:49:59.711Z,33.50
2022-08-02T17:52:51.867Z,33.41
2022-08-02T17:55:18.252Z,33.49
2022-08-02T17:57:57.194Z,33.30
2022-08-02T18:00:38.008Z,32.98
2022-08-02T18:03:08.060Z,33.09
2022-08-02T18:05:40.135Z,32.87
2022-08-02T18:08:23.640Z,32.85
2022-08-02T18:10:54.497Z,32.77
2022-08-02T18:13:23.715Z,32.50
2022-08-02T18:15:57.183Z,32.38
2022-08-02T18:18:29.642Z,32.33
2022-08-02T18:21:15.571Z,32.26
2022-08-02T18:23:49.733Z,32.48
2022-08-02T18:26:28.538Z,32.28
2022-08-02T18:28:58.205Z,32.13
2022-08-02T18:31:27.248Z,32.09
2022-08-02T18:34:01.992Z,31.55
2022-08-02T18:36:32.419Z,31.74
2022-08-02T18:39:08.209Z,31.50
2022-08-02T18:41:38.156Z,31.64
2022-08-02T18:44:07.392Z,31.81
2022-08-02T18:46:35.753Z,31.79
2022-08-02T18:49:14.753Z,31.73
2022-08-02T18:51:54.357Z,31.30
2022-08-02T18:54:30.699Z,31.59
2022-08-02T18:56:59.501Z,31.59
2022-08-02T18:59:29.248Z,31.60
2022-08-02T19:02:06.216Z,31.17
2022-08-02T19:04:34.438Z,31.16
2022-08-02T19:07:07.397Z,30.76
2022-08-02T19:09:40.017Z,30.80
2022-08-02T19:12:28.374Z,30.66
2022-08-02T19:14:59.030Z,30.70
2022-08-02T19:17:55.166Z,30.59
2022-08-02T19:20:19.364Z,30.20
2022-08-02T19:22:53.751Z,30.32
2022-08-02T19:25:27.931Z,30.18
2022-08-02T19:27:57.138Z,29.97
2022-08-02T19:30:27.755Z,29.83
2022-08-02T19:32:59.647Z,29.62
2022-08-02T19:35:34.290Z,29.62
2022-08-02T19:38:10.317Z,29.42
2022-08-02T19:40:43.831Z,29.31
2022-08-02T19:44:27.374Z,29.59
2022-08-02T19:46:01.978Z,29.46
2022-08-02T19:48:30.054Z,29.14
2022-08-02T19:51:01.520Z,29.26
2022-08-02T19:53:47.428Z,29.25
2022-08-02T19:56:20.501Z,29.19
2022-08-02T19:58:52.023Z,29.19
2022-08-02T20:01:27.007Z,29.11
2022-08-02T20:04:13.732Z,28.89
2022-08-02T20:06:45.491Z,28.53
2022-08-02T20:09:16.624Z,28.44
2022-08-02T20:11:46.469Z,28.45
2022-08-02T20:14:26.643Z,28.47
2022-08-02T20:16:57.663Z,28.37
2022-08-02T20:19:29.040Z,28.22
2022-08-02T20:21:59.989Z,27.99
2022-08-02T20:24:31.788Z,28.07
2022-08-02T20:27:02.941Z,27.87
2022-08-02T20:29:45.185Z,28.15
2022-08-02T20:32:23.283Z,27.92
2022-08-02T20:34:53.515Z,27.87
2022-08-02T20:38:00.339Z,27.90
2022-08-02T20:40:16.802Z,27.96
2022-08-02T20:42:47.696Z,27.83
2022-08-02T20:45:18.617Z,27.91
2022-08-02T20:47:50.755Z,27.51
2022-08-02T20:50:42.786Z,27.82
2022-08-02T20:53:24.000Z,28.03
2022-08-02T20:55:56.092Z,27.75
2022-08-02T20:58:26.812Z,27.75
2022-08-02T21:00:59.890Z,27.59
2022-08-02T21:03:39.452Z,27.38
2022-08-02T21:06:15.123Z,27.67
2022-08-02T21:11:34.016Z,27.50
2022-08-02T21:14:07.865Z,26.80
2022-08-02T21:16:37.972Z,26.59
2022-08-02T21:19:09.658Z,26.73
2022-08-02T21:21:54.878Z,26.81
2022-08-02T21:24:24.835Z,26.71
2022-08-02T21:26:52.847Z,26.85
2022-08-02T21:29:24.622Z,26.40
2022-08-02T21:31:53.956Z,26.41
2022-08-02T21:34:27.558Z,26.12
2022-08-02T21:36:59.878Z,26.29
2022-08-02T21:39:38.023Z,26.25
2022-08-02T21:42:07.313Z,26.25
2022-08-02T21:44:37.128Z,26.52
2022-08-02T21:47:11.099Z,26.37
2022-08-02T21:52:27.795Z,26.24
2022-08-02T21:54:56.907Z,25.75
2022-08-02T21:57:26.323Z,25.91
2022-08-02T22:00:06.476Z,25.61
2022-08-02T22:02:36.513Z,25.04
2022-08-02T22:05:06.652Z,25.45
2022-08-02T22:07:42.038Z,24.81
2022-08-02T22:10:17.978Z,24.81
2022-08-02T22:12:48.850Z,25.20
2022-08-02T22:15:25.888Z,25.26
2022-08-02T22:18:07.274Z,25.13
2022-08-02T22:20:44.965Z,25.00
2022-08-02T22:23:22.715Z,25.25
2022-08-02T22:26:08.285Z,25.37
2022-08-02T22:28:51.111Z,25.41
2022-08-02T22:31:39.604Z,25.20
2022-08-02T22:34:38.309Z,25.18
2022-08-02T22:37:02.660Z,25.17
2022-08-02T22:39:42.172Z,24.96
2022-08-02T22:42:30.022Z,25.12
2022-08-02T22:45:00.104Z,24.82
2022-08-02T22:47:38.790Z,24.70
2022-08-02T22:50:21.411Z,24.93
2022-08-02T22:52:52.908Z,24.78
2022-08-02T22:55:23.891Z,24.55
2022-08-02T22:58:03.509Z,24.80
2022-08-02T22:59:03.541Z,26.46
2022-08-02T22:59:12.946Z,27.59
2022-08-02T23:00:36.942Z,24.79
2022-08-02T23:03:07.184Z,24.89
2022-08-02T23:05:37.178Z,24.60
2022-08-02T23:08:11.023Z,24.58
2022-08-02T23:10:44.274Z,24.50
2022-08-02T23:13:18.742Z,24.72
2022-08-02T23:16:08.913Z,24.53
2022-08-02T23:18:58.625Z,24.18
2022-08-02T23:22:00.738Z,24.23
2022-08-02T23:24:27.700Z,24.58
2022-08-02T23:26:57.115Z,24.34
2022-08-02T23:29:27.807Z,24.39
2022-08-02T23:31:57.495Z,24.31
2022-08-02T23:34:30.498Z,24.36
2022-08-02T23:37:05.614Z,24.30
2022-08-02T23:39:40.598Z,24.46
2022-08-02T23:42:11.923Z,24.31
2022-08-02T23:44:42.826Z,24.21
2022-08-02T23:47:12.630Z,23.96
2022-08-02T23:49:43.239Z,24.18
2022-08-02T23:52:14.270Z,23.87
2022-08-02T23:54:46.488Z,23.81
2022-08-02T23:57:20.548Z,23.87
2022-08-02T23:59:52.628Z,23.62
